Bloomington, Wisconsin
Current Conditions -  °F | °C
As of 1:55 PM on Friday 24 Oct 2014 (Local Time) from KPDC Reporting Station
Scattered Clouds Scattered Clouds  
Wind Chill: 64°   Ceiling: Unl
Heat Index: 64°   Visibility: 10mi
Dew Point: 52°   Wind: 13mph
Humidity: 64%   Direction: 140°SE
Pressure: 29.91"   Gusts: 21mph
Location:  42.89°N, 90.92°W
Report Text: KPDC 241855Z AUTO 14011G18KT 10SM SCT065 SCT075 18/11 A2991 RMK AO2 T01790109
Loading
Personal Weather Stations






























Interactive Weather Map New forecast layout! Learn more

10-Day Weather Forecast

Advertisements
Track Severe Weather on mobile